Aviation Digital Data Service (ADDS)

Output produced by METARs form (1342 UTC 24 August 2019)
found at http://www.aviationweather.gov/metar/data/
 
METAR text: OIMM 241330Z 06014KT CAVOK 29/M01 Q1015 A2999
Conditions at: OIMM (MASHHAD (AFB/CIV, IR) observed 1330 UTC 24 August 2019
Temperature: 29.0°C (84°F)
Dewpoint: -1.0°C (30°F) [RH = 14%]
Pressure (altimeter): 29.97 inches Hg (1015.0 mb)
Winds: from the ENE (60 degrees) at 16 MPH (14 knots; 7.2 m/s)
Visibility: 6 or more miles (10+ km)
Ceiling: ceiling and visibility are OK
Clouds: unknown
Weather: no significant weather observed at this time

METAR text: OIMM 241323Z 06014KT CAVOK 29/M01 Q1015 A2999
Conditions at: OIMM (MASHHAD (AFB/CIV, IR) observed 1323 UTC 24 August 2019
Temperature: 29.0°C (84°F)
Dewpoint: -1.0°C (30°F) [RH = 14%]
Pressure (altimeter): 29.97 inches Hg (1015.0 mb)
Winds: from the ENE (60 degrees) at 16 MPH (14 knots; 7.2 m/s)
Visibility: 6 or more miles (10+ km)
Ceiling: ceiling and visibility are OK
Clouds: unknown
Weather: no significant weather observed at this time

METAR text: OIMM 241300Z 06020KT CAVOK 29/M02 Q1015 A2998
Conditions at: OIMM (MASHHAD (AFB/CIV, IR) observed 1300 UTC 24 August 2019
Temperature: 29.0°C (84°F)
Dewpoint: -2.0°C (28°F) [RH = 13%]
Pressure (altimeter): 29.97 inches Hg (1015.0 mb)
Winds: from the ENE (60 degrees) at 23 MPH (20 knots; 10.3 m/s)
Visibility: 6 or more miles (10+ km)
Ceiling: ceiling and visibility are OK
Clouds: unknown
Weather: no significant weather observed at this time

METAR text: OIMM 241230Z 06014KT CAVOK 31/M02 Q1015 A2998
Conditions at: OIMM (MASHHAD (AFB/CIV, IR) observed 1230 UTC 24 August 2019
Temperature: 31.0°C (88°F)
Dewpoint: -2.0°C (28°F) [RH = 12%]
Pressure (altimeter): 29.97 inches Hg (1015.0 mb)
Winds: from the ENE (60 degrees) at 16 MPH (14 knots; 7.2 m/s)
Visibility: 6 or more miles (10+ km)
Ceiling: ceiling and visibility are OK
Clouds: unknown
Weather: no significant weather observed at this time

METAR text: OIMM 241222Z 06014KT CAVOK 31/M02 Q1015 A2998
Conditions at: OIMM (MASHHAD (AFB/CIV, IR) observed 1222 UTC 24 August 2019
Temperature: 31.0°C (88°F)
Dewpoint: -2.0°C (28°F) [RH = 12%]
Pressure (altimeter): 29.97 inches Hg (1015.0 mb)
Winds: from the ENE (60 degrees) at 16 MPH (14 knots; 7.2 m/s)
Visibility: 6 or more miles (10+ km)
Ceiling: ceiling and visibility are OK
Clouds: unknown
Weather: no significant weather observed at this time

METAR text: OIMM 241200Z 06014KT CAVOK 31/M02 Q1015 A2998
Conditions at: OIMM (MASHHAD (AFB/CIV, IR) observed 1200 UTC 24 August 2019
Temperature: 31.0°C (88°F)
Dewpoint: -2.0°C (28°F) [RH = 12%]
Pressure (altimeter): 29.97 inches Hg (1015.0 mb)
Winds: from the ENE (60 degrees) at 16 MPH (14 knots; 7.2 m/s)
Visibility: 6 or more miles (10+ km)
Ceiling: ceiling and visibility are OK
Clouds: unknown
Weather: no significant weather observed at this time

METAR text: OIMM 241130Z 05014KT CAVOK 31/M02 Q1015 A2997
Conditions at: OIMM (MASHHAD (AFB/CIV, IR) observed 1130 UTC 24 August 2019
Temperature: 31.0°C (88°F)
Dewpoint: -2.0°C (28°F) [RH = 12%]
Pressure (altimeter): 29.97 inches Hg (1015.0 mb)
Winds: from the NE (50 degrees) at 16 MPH (14 knots; 7.2 m/s)
Visibility: 6 or more miles (10+ km)
Ceiling: ceiling and visibility are OK
Clouds: unknown
Weather: no significant weather observed at this time

METAR text: OIMM 241100Z 05010KT CAVOK 32/M01 Q1015 A2997
Conditions at: OIMM (MASHHAD (AFB/CIV, IR) observed 1100 UTC 24 August 2019
Temperature: 32.0°C (90°F)
Dewpoint: -1.0°C (30°F) [RH = 12%]
Pressure (altimeter): 29.97 inches Hg (1015.0 mb)
Winds: from the NE (50 degrees) at 12 MPH (10 knots; 5.1 m/s)
Visibility: 6 or more miles (10+ km)
Ceiling: ceiling and visibility are OK
Clouds: unknown
Weather: no significant weather observed at this time

METAR text: OIMM 241000Z 07012KT CAVOK 32/M02 Q1015 A2999
Conditions at: OIMM (MASHHAD (AFB/CIV, IR) observed 1000 UTC 24 August 2019
Temperature: 32.0°C (90°F)
Dewpoint: -2.0°C (28°F) [RH = 11%]
Pressure (altimeter): 29.97 inches Hg (1015.0 mb)
Winds: from the ENE (70 degrees) at 14 MPH (12 knots; 6.2 m/s)
Visibility: 6 or more miles (10+ km)
Ceiling: ceiling and visibility are OK
Clouds: unknown
Weather: no significant weather observed at this time

METAR text: OIMM 240930Z 04004KT CAVOK 32/M02 Q1015 A2999
Conditions at: OIMM (MASHHAD (AFB/CIV, IR) observed 0930 UTC 24 August 2019
Temperature: 32.0°C (90°F)
Dewpoint: -2.0°C (28°F) [RH = 11%]
Pressure (altimeter): 29.97 inches Hg (1015.0 mb)
Winds: from the NE (40 degrees) at 5 MPH (4 knots; 2.1 m/s)
Visibility: 6 or more miles (10+ km)
Ceiling: ceiling and visibility are OK
Clouds: unknown
Weather: no significant weather observed at this time

METAR text: OIMM 240900Z 10008KT CAVOK 32/02 Q1016 A3002
Conditions at: OIMM (MASHHAD (AFB/CIV, IR) observed 0900 UTC 24 August 2019
Temperature: 32.0°C (90°F)
Dewpoint: 2.0°C (36°F) [RH = 15%]
Pressure (altimeter): 30.00 inches Hg (1016.0 mb)
Winds: from the E (100 degrees) at 9 MPH (8 knots; 4.1 m/s)
Visibility: 6 or more miles (10+ km)
Ceiling: ceiling and visibility are OK
Clouds: unknown
Weather: no significant weather observed at this time

METAR text: OIMM 240830Z 10006KT CAVOK 31/03 Q1016 A3002
Conditions at: OIMM (MASHHAD (AFB/CIV, IR) observed 0830 UTC 24 August 2019
Temperature: 31.0°C (88°F)
Dewpoint: 3.0°C (37°F) [RH = 17%]
Pressure (altimeter): 30.00 inches Hg (1016.0 mb)
Winds: from the E (100 degrees) at 7 MPH (6 knots; 3.1 m/s)
Visibility: 6 or more miles (10+ km)
Ceiling: ceiling and visibility are OK
Clouds: unknown
Weather: no significant weather observed at this time

METAR text: OIMM 240800Z 10006KT CAVOK 31/03 Q1016 A3003
Conditions at: OIMM (MASHHAD (AFB/CIV, IR) observed 0800 UTC 24 August 2019
Temperature: 31.0°C (88°F)
Dewpoint: 3.0°C (37°F) [RH = 17%]
Pressure (altimeter): 30.00 inches Hg (1016.0 mb)
Winds: from the E (100 degrees) at 7 MPH (6 knots; 3.1 m/s)
Visibility: 6 or more miles (10+ km)
Ceiling: ceiling and visibility are OK
Clouds: unknown
Weather: no significant weather observed at this time

METAR text: OIMM 240730Z 12006KT CAVOK 30/04 Q1017 A3004
Conditions at: OIMM (MASHHAD (AFB/CIV, IR) observed 0730 UTC 24 August 2019
Temperature: 30.0°C (86°F)
Dewpoint: 4.0°C (39°F) [RH = 19%]
Pressure (altimeter): 30.03 inches Hg (1017.0 mb)
Winds: from the ESE (120 degrees) at 7 MPH (6 knots; 3.1 m/s)
Visibility: 6 or more miles (10+ km)
Ceiling: ceiling and visibility are OK
Clouds: unknown
Weather: no significant weather observed at this time

METAR text: OIMM 240700Z 11006KT CAVOK 30/04 Q1017 A3005
Conditions at: OIMM (MASHHAD (AFB/CIV, IR) observed 0700 UTC 24 August 2019
Temperature: 30.0°C (86°F)
Dewpoint: 4.0°C (39°F) [RH = 19%]
Pressure (altimeter): 30.03 inches Hg (1017.0 mb)
Winds: from the ESE (110 degrees) at 7 MPH (6 knots; 3.1 m/s)
Visibility: 6 or more miles (10+ km)
Ceiling: ceiling and visibility are OK
Clouds: unknown
Weather: no significant weather observed at this time

METAR text: OIMM 240630Z 09006KT CAVOK 30/05 Q1017 A3005
Conditions at: OIMM (MASHHAD (AFB/CIV, IR) observed 0630 UTC 24 August 2019
Temperature: 30.0°C (86°F)
Dewpoint: 5.0°C (41°F) [RH = 21%]
Pressure (altimeter): 30.03 inches Hg (1017.0 mb)
Winds: from the E (90 degrees) at 7 MPH (6 knots; 3.1 m/s)
Visibility: 6 or more miles (10+ km)
Ceiling: ceiling and visibility are OK
Clouds: unknown
Weather: no significant weather observed at this time

METAR text: OIMM 240600Z 17006KT CAVOK 28/04 Q1017 A3006
Conditions at: OIMM (MASHHAD (AFB/CIV, IR) observed 0600 UTC 24 August 2019
Temperature: 28.0°C (82°F)
Dewpoint: 4.0°C (39°F) [RH = 22%]
Pressure (altimeter): 30.03 inches Hg (1017.0 mb)
Winds: from the S (170 degrees) at 7 MPH (6 knots; 3.1 m/s)
Visibility: 6 or more miles (10+ km)
Ceiling: ceiling and visibility are OK
Clouds: unknown
Weather: no significant weather observed at this time

METAR text: OIMM 240530Z 10004KT CAVOK 28/04 Q1017 A3006
Conditions at: OIMM (MASHHAD (AFB/CIV, IR) observed 0530 UTC 24 August 2019
Temperature: 28.0°C (82°F)
Dewpoint: 4.0°C (39°F) [RH = 22%]
Pressure (altimeter): 30.03 inches Hg (1017.0 mb)
Winds: from the E (100 degrees) at 5 MPH (4 knots; 2.1 m/s)
Visibility: 6 or more miles (10+ km)
Ceiling: ceiling and visibility are OK
Clouds: unknown
Weather: no significant weather observed at this time

METAR text: OIMM 240500Z 05004KT CAVOK 27/05 Q1017 A3006
Conditions at: OIMM (MASHHAD (AFB/CIV, IR) observed 0500 UTC 24 August 2019
Temperature: 27.0°C (81°F)
Dewpoint: 5.0°C (41°F) [RH = 24%]
Pressure (altimeter): 30.03 inches Hg (1017.0 mb)
Winds: from the NE (50 degrees) at 5 MPH (4 knots; 2.1 m/s)
Visibility: 6 or more miles (10+ km)
Ceiling: ceiling and visibility are OK
Clouds: unknown
Weather: no significant weather observed at this time

METAR text: OIMM 240430Z 09004KT CAVOK 27/05 Q1017 A3006
Conditions at: OIMM (MASHHAD (AFB/CIV, IR) observed 0430 UTC 24 August 2019
Temperature: 27.0°C (81°F)
Dewpoint: 5.0°C (41°F) [RH = 24%]
Pressure (altimeter): 30.03 inches Hg (1017.0 mb)
Winds: from the E (90 degrees) at 5 MPH (4 knots; 2.1 m/s)
Visibility: 6 or more miles (10+ km)
Ceiling: ceiling and visibility are OK
Clouds: unknown
Weather: no significant weather observed at this time

METAR text: OIMM 240400Z 00000KT CAVOK 26/05 Q1017 A3005
Conditions at: OIMM (MASHHAD (AFB/CIV, IR) observed 0400 UTC 24 August 2019
Temperature: 26.0°C (79°F)
Dewpoint: 5.0°C (41°F) [RH = 26%]
Pressure (altimeter): 30.03 inches Hg (1017.0 mb)
Winds: calm
Visibility: 6 or more miles (10+ km)
Ceiling: ceiling and visibility are OK
Clouds: unknown
Weather: no significant weather observed at this time

METAR text: OIMM 240330Z 00000KT CAVOK 25/06 Q1017 A3005
Conditions at: OIMM (MASHHAD (AFB/CIV, IR) observed 0330 UTC 24 August 2019
Temperature: 25.0°C (77°F)
Dewpoint: 6.0°C (43°F) [RH = 30%]
Pressure (altimeter): 30.03 inches Hg (1017.0 mb)
Winds: calm
Visibility: 6 or more miles (10+ km)
Ceiling: ceiling and visibility are OK
Clouds: unknown
Weather: no significant weather observed at this time

METAR text: OIMM 240300Z 00000KT CAVOK 24/05 Q1017 A3004
Conditions at: OIMM (MASHHAD (AFB/CIV, IR) observed 0300 UTC 24 August 2019
Temperature: 24.0°C (75°F)
Dewpoint: 5.0°C (41°F) [RH = 29%]
Pressure (altimeter): 30.03 inches Hg (1017.0 mb)
Winds: calm
Visibility: 6 or more miles (10+ km)
Ceiling: ceiling and visibility are OK
Clouds: unknown
Weather: no significant weather observed at this time

METAR text: OIMM 240230Z 05004KT CAVOK 22/05 Q1017 A3003
Conditions at: OIMM (MASHHAD (AFB/CIV, IR) observed 0230 UTC 24 August 2019
Temperature: 22.0°C (72°F)
Dewpoint: 5.0°C (41°F) [RH = 33%]
Pressure (altimeter): 30.03 inches Hg (1017.0 mb)
Winds: from the NE (50 degrees) at 5 MPH (4 knots; 2.1 m/s)
Visibility: 6 or more miles (10+ km)
Ceiling: ceiling and visibility are OK
Clouds: unknown
Weather: no significant weather observed at this time

METAR text: OIMM 240200Z 00000KT CAVOK 19/05 Q1017 A3003
Conditions at: OIMM (MASHHAD (AFB/CIV, IR) observed 0200 UTC 24 August 2019
Temperature: 19.0°C (66°F)
Dewpoint: 5.0°C (41°F) [RH = 40%]
Pressure (altimeter): 30.03 inches Hg (1017.0 mb)
Winds: calm
Visibility: 6 or more miles (10+ km)
Ceiling: ceiling and visibility are OK
Clouds: unknown
Weather: no significant weather observed at this time

METAR text: OIMM 240130Z 00000KT CAVOK 20/04 Q1016 A3003
Conditions at: OIMM (MASHHAD (AFB/CIV, IR) observed 0130 UTC 24 August 2019
Temperature: 20.0°C (68°F)
Dewpoint: 4.0°C (39°F) [RH = 35%]
Pressure (altimeter): 30.00 inches Hg (1016.0 mb)
Winds: calm
Visibility: 6 or more miles (10+ km)
Ceiling: ceiling and visibility are OK
Clouds: unknown
Weather: no significant weather observed at this time

METAR text: OIMM 240100Z 18004KT CAVOK 21/05 Q1016 A3002
Conditions at: OIMM (MASHHAD (AFB/CIV, IR) observed 0100 UTC 24 August 2019
Temperature: 21.0°C (70°F)
Dewpoint: 5.0°C (41°F) [RH = 35%]
Pressure (altimeter): 30.00 inches Hg (1016.0 mb)
Winds: from the S (180 degrees) at 5 MPH (4 knots; 2.1 m/s)
Visibility: 6 or more miles (10+ km)
Ceiling: ceiling and visibility are OK
Clouds: unknown
Weather: no significant weather observed at this time

METAR text: OIMM 240030Z 21004KT CAVOK 21/05 Q1016 A3003
Conditions at: OIMM (MASHHAD (AFB/CIV, IR) observed 0030 UTC 24 August 2019
Temperature: 21.0°C (70°F)
Dewpoint: 5.0°C (41°F) [RH = 35%]
Pressure (altimeter): 30.00 inches Hg (1016.0 mb)
Winds: from the SSW (210 degrees) at 5 MPH (4 knots; 2.1 m/s)
Visibility: 6 or more miles (10+ km)
Ceiling: ceiling and visibility are OK
Clouds: unknown
Weather: no significant weather observed at this time

METAR text: OIMM 240000Z 27004KT CAVOK 22/05 Q1016 A3003
Conditions at: OIMM (MASHHAD (AFB/CIV, IR) observed 0000 UTC 24 August 2019
Temperature: 22.0°C (72°F)
Dewpoint: 5.0°C (41°F) [RH = 33%]
Pressure (altimeter): 30.00 inches Hg (1016.0 mb)
Winds: from the W (270 degrees) at 5 MPH (4 knots; 2.1 m/s)
Visibility: 6 or more miles (10+ km)
Ceiling: ceiling and visibility are OK
Clouds: unknown
Weather: no significant weather observed at this time

METAR text: OIMM 232330Z 27004KT CAVOK 22/05 Q1016 A3003
Conditions at: OIMM (MASHHAD (AFB/CIV, IR) observed 2330 UTC 23 August 2019
Temperature: 22.0°C (72°F)
Dewpoint: 5.0°C (41°F) [RH = 33%]
Pressure (altimeter): 30.00 inches Hg (1016.0 mb)
Winds: from the W (270 degrees) at 5 MPH (4 knots; 2.1 m/s)
Visibility: 6 or more miles (10+ km)
Ceiling: ceiling and visibility are OK
Clouds: unknown
Weather: no significant weather observed at this time

METAR text: OIMM 232300Z 29004KT CAVOK 23/04 Q1017 A3004
Conditions at: OIMM (MASHHAD (AFB/CIV, IR) observed 2300 UTC 23 August 2019
Temperature: 23.0°C (73°F)
Dewpoint: 4.0°C (39°F) [RH = 29%]
Pressure (altimeter): 30.03 inches Hg (1017.0 mb)
Winds: from the WNW (290 degrees) at 5 MPH (4 knots; 2.1 m/s)
Visibility: 6 or more miles (10+ km)
Ceiling: ceiling and visibility are OK
Clouds: unknown
Weather: no significant weather observed at this time

METAR text: OIMM 232230Z 27004KT CAVOK 23/04 Q1017 A3004
Conditions at: OIMM (MASHHAD (AFB/CIV, IR) observed 2230 UTC 23 August 2019
Temperature: 23.0°C (73°F)
Dewpoint: 4.0°C (39°F) [RH = 29%]
Pressure (altimeter): 30.03 inches Hg (1017.0 mb)
Winds: from the W (270 degrees) at 5 MPH (4 knots; 2.1 m/s)
Visibility: 6 or more miles (10+ km)
Ceiling: ceiling and visibility are OK
Clouds: unknown
Weather: no significant weather observed at this time

METAR text: OIMM 232200Z 29004KT CAVOK 23/04 Q1017 A3005
Conditions at: OIMM (MASHHAD (AFB/CIV, IR) observed 2200 UTC 23 August 2019
Temperature: 23.0°C (73°F)
Dewpoint: 4.0°C (39°F) [RH = 29%]
Pressure (altimeter): 30.03 inches Hg (1017.0 mb)
Winds: from the WNW (290 degrees) at 5 MPH (4 knots; 2.1 m/s)
Visibility: 6 or more miles (10+ km)
Ceiling: ceiling and visibility are OK
Clouds: unknown
Weather: no significant weather observed at this time

METAR text: OIMM 232130Z 03006KT CAVOK 23/04 Q1017 A3005
Conditions at: OIMM (MASHHAD (AFB/CIV, IR) observed 2130 UTC 23 August 2019
Temperature: 23.0°C (73°F)
Dewpoint: 4.0°C (39°F) [RH = 29%]
Pressure (altimeter): 30.03 inches Hg (1017.0 mb)
Winds: from the NNE (30 degrees) at 7 MPH (6 knots; 3.1 m/s)
Visibility: 6 or more miles (10+ km)
Ceiling: ceiling and visibility are OK
Clouds: unknown
Weather: no significant weather observed at this time

METAR text: OIMM 232100Z 05010KT CAVOK 24/02 Q1017 A3005
Conditions at: OIMM (MASHHAD (AFB/CIV, IR) observed 2100 UTC 23 August 2019
Temperature: 24.0°C (75°F)
Dewpoint: 2.0°C (36°F) [RH = 24%]
Pressure (altimeter): 30.03 inches Hg (1017.0 mb)
Winds: from the NE (50 degrees) at 12 MPH (10 knots; 5.1 m/s)
Visibility: 6 or more miles (10+ km)
Ceiling: ceiling and visibility are OK
Clouds: unknown
Weather: no significant weather observed at this time

METAR text: OIMM 232030Z 05010KT CAVOK 24/02 Q1017 A3005
Conditions at: OIMM (MASHHAD (AFB/CIV, IR) observed 2030 UTC 23 August 2019
Temperature: 24.0°C (75°F)
Dewpoint: 2.0°C (36°F) [RH = 24%]
Pressure (altimeter): 30.03 inches Hg (1017.0 mb)
Winds: from the NE (50 degrees) at 12 MPH (10 knots; 5.1 m/s)
Visibility: 6 or more miles (10+ km)
Ceiling: ceiling and visibility are OK
Clouds: unknown
Weather: no significant weather observed at this time

METAR text: OIMM 232000Z 04006KT CAVOK 24/02 Q1017 A3005
Conditions at: OIMM (MASHHAD (AFB/CIV, IR) observed 2000 UTC 23 August 2019
Temperature: 24.0°C (75°F)
Dewpoint: 2.0°C (36°F) [RH = 24%]
Pressure (altimeter): 30.03 inches Hg (1017.0 mb)
Winds: from the NE (40 degrees) at 7 MPH (6 knots; 3.1 m/s)
Visibility: 6 or more miles (10+ km)
Ceiling: ceiling and visibility are OK
Clouds: unknown
Weather: no significant weather observed at this time

METAR text: OIMM 231930Z 04006KT CAVOK 24/02 Q1017 A3005
Conditions at: OIMM (MASHHAD (AFB/CIV, IR) observed 1930 UTC 23 August 2019
Temperature: 24.0°C (75°F)
Dewpoint: 2.0°C (36°F) [RH = 24%]
Pressure (altimeter): 30.03 inches Hg (1017.0 mb)
Winds: from the NE (40 degrees) at 7 MPH (6 knots; 3.1 m/s)
Visibility: 6 or more miles (10+ km)
Ceiling: ceiling and visibility are OK
Clouds: unknown
Weather: no significant weather observed at this time

METAR text: OIMM 231900Z 02006KT CAVOK 24/02 Q1017 A3005
Conditions at: OIMM (MASHHAD (AFB/CIV, IR) observed 1900 UTC 23 August 2019
Temperature: 24.0°C (75°F)
Dewpoint: 2.0°C (36°F) [RH = 24%]
Pressure (altimeter): 30.03 inches Hg (1017.0 mb)
Winds: from the NNE (20 degrees) at 7 MPH (6 knots; 3.1 m/s)
Visibility: 6 or more miles (10+ km)
Ceiling: ceiling and visibility are OK
Clouds: unknown
Weather: no significant weather observed at this time

METAR text: OIMM 231830Z 02006KT CAVOK 25/02 Q1017 A3005
Conditions at: OIMM (MASHHAD (AFB/CIV, IR) observed 1830 UTC 23 August 2019
Temperature: 25.0°C (77°F)
Dewpoint: 2.0°C (36°F) [RH = 22%]
Pressure (altimeter): 30.03 inches Hg (1017.0 mb)
Winds: from the NNE (20 degrees) at 7 MPH (6 knots; 3.1 m/s)
Visibility: 6 or more miles (10+ km)
Ceiling: ceiling and visibility are OK
Clouds: unknown
Weather: no significant weather observed at this time

METAR text: OIMM 231800Z 00000KT CAVOK 25/02 Q1017 A3005
Conditions at: OIMM (MASHHAD (AFB/CIV, IR) observed 1800 UTC 23 August 2019
Temperature: 25.0°C (77°F)
Dewpoint: 2.0°C (36°F) [RH = 22%]
Pressure (altimeter): 30.03 inches Hg (1017.0 mb)
Winds: calm
Visibility: 6 or more miles (10+ km)
Ceiling: ceiling and visibility are OK
Clouds: unknown
Weather: no significant weather observed at this time

METAR text: OIMM 231730Z 03004KT CAVOK 26/02 Q1017 A3006
Conditions at: OIMM (MASHHAD (AFB/CIV, IR) observed 1730 UTC 23 August 2019
Temperature: 26.0°C (79°F)
Dewpoint: 2.0°C (36°F) [RH = 21%]
Pressure (altimeter): 30.03 inches Hg (1017.0 mb)
Winds: from the NNE (30 degrees) at 5 MPH (4 knots; 2.1 m/s)
Visibility: 6 or more miles (10+ km)
Ceiling: ceiling and visibility are OK
Clouds: unknown
Weather: no significant weather observed at this time

METAR text: OIMM 231700Z 03006KT CAVOK 26/02 Q1017 A3006
Conditions at: OIMM (MASHHAD (AFB/CIV, IR) observed 1700 UTC 23 August 2019
Temperature: 26.0°C (79°F)
Dewpoint: 2.0°C (36°F) [RH = 21%]
Pressure (altimeter): 30.03 inches Hg (1017.0 mb)
Winds: from the NNE (30 degrees) at 7 MPH (6 knots; 3.1 m/s)
Visibility: 6 or more miles (10+ km)
Ceiling: ceiling and visibility are OK
Clouds: unknown
Weather: no significant weather observed at this time

METAR text: OIMM 231630Z 03006KT CAVOK 27/03 Q1017 A3005
Conditions at: OIMM (MASHHAD (AFB/CIV, IR) observed 1630 UTC 23 August 2019
Temperature: 27.0°C (81°F)
Dewpoint: 3.0°C (37°F) [RH = 21%]
Pressure (altimeter): 30.03 inches Hg (1017.0 mb)
Winds: from the NNE (30 degrees) at 7 MPH (6 knots; 3.1 m/s)
Visibility: 6 or more miles (10+ km)
Ceiling: ceiling and visibility are OK
Clouds: unknown
Weather: no significant weather observed at this time

METAR text: OIMM 231600Z 04008KT CAVOK 27/03 Q1017 A3004
Conditions at: OIMM (MASHHAD (AFB/CIV, IR) observed 1600 UTC 23 August 2019
Temperature: 27.0°C (81°F)
Dewpoint: 3.0°C (37°F) [RH = 21%]
Pressure (altimeter): 30.03 inches Hg (1017.0 mb)
Winds: from the NE (40 degrees) at 9 MPH (8 knots; 4.1 m/s)
Visibility: 6 or more miles (10+ km)
Ceiling: ceiling and visibility are OK
Clouds: unknown
Weather: no significant weather observed at this time

METAR text: OIMM 231530Z 04006KT CAVOK 28/03 Q1017 A3004
Conditions at: OIMM (MASHHAD (AFB/CIV, IR) observed 1530 UTC 23 August 2019
Temperature: 28.0°C (82°F)
Dewpoint: 3.0°C (37°F) [RH = 20%]
Pressure (altimeter): 30.03 inches Hg (1017.0 mb)
Winds: from the NE (40 degrees) at 7 MPH (6 knots; 3.1 m/s)
Visibility: 6 or more miles (10+ km)
Ceiling: ceiling and visibility are OK
Clouds: unknown
Weather: no significant weather observed at this time

METAR text: OIMM 231500Z 03010KT 9999 FEW045 29/02 Q1016 A3003
Conditions at: OIMM (MASHHAD (AFB/CIV, IR) observed 1500 UTC 23 August 2019
Temperature: 29.0°C (84°F)
Dewpoint: 2.0°C (36°F) [RH = 18%]
Pressure (altimeter): 30.00 inches Hg (1016.0 mb)
Winds: from the NNE (30 degrees) at 12 MPH (10 knots; 5.1 m/s)
Visibility: 6 or more miles (10+ km)
Ceiling: at least 12,000 feet AGL
Clouds: few clouds at 4500 feet AGL
Weather: no significant weather observed at this time

METAR text: OIMM 231430Z 05010KT 9999 FEW045 30/02 Q1016 A3002
Conditions at: OIMM (MASHHAD (AFB/CIV, IR) observed 1430 UTC 23 August 2019
Temperature: 30.0°C (86°F)
Dewpoint: 2.0°C (36°F) [RH = 17%]
Pressure (altimeter): 30.00 inches Hg (1016.0 mb)
Winds: from the NE (50 degrees) at 12 MPH (10 knots; 5.1 m/s)
Visibility: 6 or more miles (10+ km)
Ceiling: at least 12,000 feet AGL
Clouds: few clouds at 4500 feet AGL
Weather: no significant weather observed at this time

METAR text: OIMM 231400Z 06016KT 9999 FEW040 31/00 Q1016 A3001
Conditions at: OIMM (MASHHAD (AFB/CIV, IR) observed 1400 UTC 23 August 2019
Temperature: 31.0°C (88°F)
Dewpoint: 0.0°C (32°F) [RH = 14%]
Pressure (altimeter): 30.00 inches Hg (1016.0 mb)
Winds: from the ENE (60 degrees) at 18 MPH (16 knots; 8.2 m/s)
Visibility: 6 or more miles (10+ km)
Ceiling: at least 12,000 feet AGL
Clouds: few clouds at 4000 feet AGL
Weather: no significant weather observed at this time

METAR text: OIMM 231330Z 03014KT CAVOK 31/01 Q1016 A3002
Conditions at: OIMM (MASHHAD (AFB/CIV, IR) observed 1330 UTC 23 August 2019
Temperature: 31.0°C (88°F)
Dewpoint: 1.0°C (34°F) [RH = 15%]
Pressure (altimeter): 30.00 inches Hg (1016.0 mb)
Winds: from the NNE (30 degrees) at 16 MPH (14 knots; 7.2 m/s)
Visibility: 6 or more miles (10+ km)
Ceiling: ceiling and visibility are OK
Clouds: unknown
Weather: no significant weather observed at this time

METAR text: OIMM 231300Z 05018KT 9999 FEW040 32/00 Q1016 A3002
Conditions at: OIMM (MASHHAD (AFB/CIV, IR) observed 1300 UTC 23 August 2019
Temperature: 32.0°C (90°F)
Dewpoint: 0.0°C (32°F) [RH = 13%]
Pressure (altimeter): 30.00 inches Hg (1016.0 mb)
Winds: from the NE (50 degrees) at 21 MPH (18 knots; 9.3 m/s)
Visibility: 6 or more miles (10+ km)
Ceiling: at least 12,000 feet AGL
Clouds: few clouds at 4000 feet AGL
Weather: no significant weather observed at this time

METAR text: OIMM 231230Z 03014KT 9999 FEW040 32/01 Q1016 A3001
Conditions at: OIMM (MASHHAD (AFB/CIV, IR) observed 1230 UTC 23 August 2019
Temperature: 32.0°C (90°F)
Dewpoint: 1.0°C (34°F) [RH = 14%]
Pressure (altimeter): 30.00 inches Hg (1016.0 mb)
Winds: from the NNE (30 degrees) at 16 MPH (14 knots; 7.2 m/s)
Visibility: 6 or more miles (10+ km)
Ceiling: at least 12,000 feet AGL
Clouds: few clouds at 4000 feet AGL
Weather: no significant weather observed at this time

METAR text: OIMM 231200Z 07014KT 9999 FEW040 33/01 Q1016 A3001
Conditions at: OIMM (MASHHAD (AFB/CIV, IR) observed 1200 UTC 23 August 2019
Temperature: 33.0°C (91°F)
Dewpoint: 1.0°C (34°F) [RH = 13%]
Pressure (altimeter): 30.00 inches Hg (1016.0 mb)
Winds: from the ENE (70 degrees) at 16 MPH (14 knots; 7.2 m/s)
Visibility: 6 or more miles (10+ km)
Ceiling: at least 12,000 feet AGL
Clouds: few clouds at 4000 feet AGL
Weather: no significant weather observed at this time

METAR text: OIMM 231130Z 08014KT 9999 SCT040 33/M00 Q1016 A3001
Conditions at: OIMM (MASHHAD (AFB/CIV, IR) observed 1130 UTC 23 August 2019
Temperature: 33.0°C (91°F)
Dewpoint: 0.0°C (32°F) [RH = 12%]
Pressure (altimeter): 30.00 inches Hg (1016.0 mb)
Winds: from the E (80 degrees) at 16 MPH (14 knots; 7.2 m/s)
Visibility: 6 or more miles (10+ km)
Ceiling: at least 12,000 feet AGL
Clouds: scattered clouds at 4000 feet AGL
Weather: no significant weather observed at this time

METAR text: OIMM 231100Z 04014KT 9999 SCT040 34/M01 Q1016 A3001
Conditions at: OIMM (MASHHAD (AFB/CIV, IR) observed 1100 UTC 23 August 2019
Temperature: 34.0°C (93°F)
Dewpoint: -1.0°C (30°F) [RH = 11%]
Pressure (altimeter): 30.00 inches Hg (1016.0 mb)
Winds: from the NE (40 degrees) at 16 MPH (14 knots; 7.2 m/s)
Visibility: 6 or more miles (10+ km)
Ceiling: at least 12,000 feet AGL
Clouds: scattered clouds at 4000 feet AGL
Weather: no significant weather observed at this time

METAR text: OIMM 231030Z 04004KT 9999 SCT040 34/M01 Q1016 A3000
Conditions at: OIMM (MASHHAD (AFB/CIV, IR) observed 1030 UTC 23 August 2019
Temperature: 34.0°C (93°F)
Dewpoint: -1.0°C (30°F) [RH = 11%]
Pressure (altimeter): 30.00 inches Hg (1016.0 mb)
Winds: from the NE (40 degrees) at 5 MPH (4 knots; 2.1 m/s)
Visibility: 6 or more miles (10+ km)
Ceiling: at least 12,000 feet AGL
Clouds: scattered clouds at 4000 feet AGL
Weather: no significant weather observed at this time

METAR text: OIMM 231000Z 04010KT 9999 FEW040 34/M01 Q1016 A3001
Conditions at: OIMM (MASHHAD (AFB/CIV, IR) observed 1000 UTC 23 August 2019
Temperature: 34.0°C (93°F)
Dewpoint: -1.0°C (30°F) [RH = 11%]
Pressure (altimeter): 30.00 inches Hg (1016.0 mb)
Winds: from the NE (40 degrees) at 12 MPH (10 knots; 5.1 m/s)
Visibility: 6 or more miles (10+ km)
Ceiling: at least 12,000 feet AGL
Clouds: few clouds at 4000 feet AGL
Weather: no significant weather observed at this time

METAR text: OIMM 230930Z 07010KT CAVOK 34/M01 Q1016 A3001
Conditions at: OIMM (MASHHAD (AFB/CIV, IR) observed 0930 UTC 23 August 2019
Temperature: 34.0°C (93°F)
Dewpoint: -1.0°C (30°F) [RH = 11%]
Pressure (altimeter): 30.00 inches Hg (1016.0 mb)
Winds: from the ENE (70 degrees) at 12 MPH (10 knots; 5.1 m/s)
Visibility: 6 or more miles (10+ km)
Ceiling: ceiling and visibility are OK
Clouds: unknown
Weather: no significant weather observed at this time

METAR text: OIMM 230900Z 05016KT 9999 FEW040 34/M01 Q1016 A3002
Conditions at: OIMM (MASHHAD (AFB/CIV, IR) observed 0900 UTC 23 August 2019
Temperature: 34.0°C (93°F)
Dewpoint: -1.0°C (30°F) [RH = 11%]
Pressure (altimeter): 30.00 inches Hg (1016.0 mb)
Winds: from the NE (50 degrees) at 18 MPH (16 knots; 8.2 m/s)
Visibility: 6 or more miles (10+ km)
Ceiling: at least 12,000 feet AGL
Clouds: few clouds at 4000 feet AGL
Weather: no significant weather observed at this time

METAR text: OIMM 230830Z 08012KT CAVOK 33/M00 Q1017 A3004
Conditions at: OIMM (MASHHAD (AFB/CIV, IR) observed 0830 UTC 23 August 2019
Temperature: 33.0°C (91°F)
Dewpoint: 0.0°C (32°F) [RH = 12%]
Pressure (altimeter): 30.03 inches Hg (1017.0 mb)
Winds: from the E (80 degrees) at 14 MPH (12 knots; 6.2 m/s)
Visibility: 6 or more miles (10+ km)
Ceiling: ceiling and visibility are OK
Clouds: unknown
Weather: no significant weather observed at this time

METAR text: OIMM 230800Z 12012KT 9999 FEW040 34/00 Q1017 A3004
Conditions at: OIMM (MASHHAD (AFB/CIV, IR) observed 0800 UTC 23 August 2019
Temperature: 34.0°C (93°F)
Dewpoint: 0.0°C (32°F) [RH = 11%]
Pressure (altimeter): 30.03 inches Hg (1017.0 mb)
Winds: from the ESE (120 degrees) at 14 MPH (12 knots; 6.2 m/s)
Visibility: 6 or more miles (10+ km)
Ceiling: at least 12,000 feet AGL
Clouds: few clouds at 4000 feet AGL
Weather: no significant weather observed at this time

METAR text: OIMM 230730Z 03010KT CAVOK 33/00 Q1017 A3004
Conditions at: OIMM (MASHHAD (AFB/CIV, IR) observed 0730 UTC 23 August 2019
Temperature: 33.0°C (91°F)
Dewpoint: 0.0°C (32°F) [RH = 12%]
Pressure (altimeter): 30.03 inches Hg (1017.0 mb)
Winds: from the NNE (30 degrees) at 12 MPH (10 knots; 5.1 m/s)
Visibility: 6 or more miles (10+ km)
Ceiling: ceiling and visibility are OK
Clouds: unknown
Weather: no significant weather observed at this time

METAR text: OIMM 230700Z 05016KT CAVOK 34/00 Q1017 A3004
Conditions at: OIMM (MASHHAD (AFB/CIV, IR) observed 0700 UTC 23 August 2019
Temperature: 34.0°C (93°F)
Dewpoint: 0.0°C (32°F) [RH = 11%]
Pressure (altimeter): 30.03 inches Hg (1017.0 mb)
Winds: from the NE (50 degrees) at 18 MPH (16 knots; 8.2 m/s)
Visibility: 6 or more miles (10+ km)
Ceiling: ceiling and visibility are OK
Clouds: unknown
Weather: no significant weather observed at this time

METAR text: OIMM 230630Z 36004KT CAVOK 32/02 Q1017 A3005
Conditions at: OIMM (MASHHAD (AFB/CIV, IR) observed 0630 UTC 23 August 2019
Temperature: 32.0°C (90°F)
Dewpoint: 2.0°C (36°F) [RH = 15%]
Pressure (altimeter): 30.03 inches Hg (1017.0 mb)
Winds: from the N (360 degrees) at 5 MPH (4 knots; 2.1 m/s)
Visibility: 6 or more miles (10+ km)
Ceiling: ceiling and visibility are OK
Clouds: unknown
Weather: no significant weather observed at this time

METAR text: OIMM 230600Z 34006KT CAVOK 31/02 Q1017 A3005
Conditions at: OIMM (MASHHAD (AFB/CIV, IR) observed 0600 UTC 23 August 2019
Temperature: 31.0°C (88°F)
Dewpoint: 2.0°C (36°F) [RH = 16%]
Pressure (altimeter): 30.03 inches Hg (1017.0 mb)
Winds: from the NNW (340 degrees) at 7 MPH (6 knots; 3.1 m/s)
Visibility: 6 or more miles (10+ km)
Ceiling: ceiling and visibility are OK
Clouds: unknown
Weather: no significant weather observed at this time

METAR text: OIMM 230530Z 34010KT CAVOK 30/02 Q1017 A3005
Conditions at: OIMM (MASHHAD (AFB/CIV, IR) observed 0530 UTC 23 August 2019
Temperature: 30.0°C (86°F)
Dewpoint: 2.0°C (36°F) [RH = 17%]
Pressure (altimeter): 30.03 inches Hg (1017.0 mb)
Winds: from the NNW (340 degrees) at 12 MPH (10 knots; 5.1 m/s)
Visibility: 6 or more miles (10+ km)
Ceiling: ceiling and visibility are OK
Clouds: unknown
Weather: no significant weather observed at this time

METAR text: OIMM 230500Z 34008KT CAVOK 29/03 Q1017 A3005
Conditions at: OIMM (MASHHAD (AFB/CIV, IR) observed 0500 UTC 23 August 2019
Temperature: 29.0°C (84°F)
Dewpoint: 3.0°C (37°F) [RH = 19%]
Pressure (altimeter): 30.03 inches Hg (1017.0 mb)
Winds: from the NNW (340 degrees) at 9 MPH (8 knots; 4.1 m/s)
Visibility: 6 or more miles (10+ km)
Ceiling: ceiling and visibility are OK
Clouds: unknown
Weather: no significant weather observed at this time

METAR text: OIMM 230430Z 30010KT CAVOK 29/04 Q1017 A3004
Conditions at: OIMM (MASHHAD (AFB/CIV, IR) observed 0430 UTC 23 August 2019
Temperature: 29.0°C (84°F)
Dewpoint: 4.0°C (39°F) [RH = 20%]
Pressure (altimeter): 30.03 inches Hg (1017.0 mb)
Winds: from the WNW (300 degrees) at 12 MPH (10 knots; 5.1 m/s)
Visibility: 6 or more miles (10+ km)
Ceiling: ceiling and visibility are OK
Clouds: unknown
Weather: no significant weather observed at this time

METAR text: OIMM 230400Z 31010KT CAVOK 28/05 Q1017 A3004
Conditions at: OIMM (MASHHAD (AFB/CIV, IR) observed 0400 UTC 23 August 2019
Temperature: 28.0°C (82°F)
Dewpoint: 5.0°C (41°F) [RH = 23%]
Pressure (altimeter): 30.03 inches Hg (1017.0 mb)
Winds: from the NW (310 degrees) at 12 MPH (10 knots; 5.1 m/s)
Visibility: 6 or more miles (10+ km)
Ceiling: ceiling and visibility are OK
Clouds: unknown
Weather: no significant weather observed at this time

METAR text: OIMM 230330Z 33006KT CAVOK 27/06 Q1017 A3003
Conditions at: OIMM (MASHHAD (AFB/CIV, IR) observed 0330 UTC 23 August 2019
Temperature: 27.0°C (81°F)
Dewpoint: 6.0°C (43°F) [RH = 26%]
Pressure (altimeter): 30.03 inches Hg (1017.0 mb)
Winds: from the NNW (330 degrees) at 7 MPH (6 knots; 3.1 m/s)
Visibility: 6 or more miles (10+ km)
Ceiling: ceiling and visibility are OK
Clouds: unknown
Weather: no significant weather observed at this time

METAR text: OIMM 230300Z 31008KT CAVOK 23/07 Q1017 A3003
Conditions at: OIMM (MASHHAD (AFB/CIV, IR) observed 0300 UTC 23 August 2019
Temperature: 23.0°C (73°F)
Dewpoint: 7.0°C (45°F) [RH = 36%]
Pressure (altimeter): 30.03 inches Hg (1017.0 mb)
Winds: from the NW (310 degrees) at 9 MPH (8 knots; 4.1 m/s)
Visibility: 6 or more miles (10+ km)
Ceiling: ceiling and visibility are OK
Clouds: unknown
Weather: no significant weather observed at this time

METAR text: OIMM 230230Z 31006KT CAVOK 22/06 Q1017 A3003
Conditions at: OIMM (MASHHAD (AFB/CIV, IR) observed 0230 UTC 23 August 2019
Temperature: 22.0°C (72°F)
Dewpoint: 6.0°C (43°F) [RH = 35%]
Pressure (altimeter): 30.03 inches Hg (1017.0 mb)
Winds: from the NW (310 degrees) at 7 MPH (6 knots; 3.1 m/s)
Visibility: 6 or more miles (10+ km)
Ceiling: ceiling and visibility are OK
Clouds: unknown
Weather: no significant weather observed at this time

METAR text: OIMM 230200Z 31008KT CAVOK 21/07 Q1016 A3003
Conditions at: OIMM (MASHHAD (AFB/CIV, IR) observed 0200 UTC 23 August 2019
Temperature: 21.0°C (70°F)
Dewpoint: 7.0°C (45°F) [RH = 40%]
Pressure (altimeter): 30.00 inches Hg (1016.0 mb)
Winds: from the NW (310 degrees) at 9 MPH (8 knots; 4.1 m/s)
Visibility: 6 or more miles (10+ km)
Ceiling: ceiling and visibility are OK
Clouds: unknown
Weather: no significant weather observed at this time

Forecast for: OIMM (MASHHAD (AFB/CIV, IR)
Text: TAF OIMM 241130Z 2412/2518 10008KT 8000 FEW040
Forecast period: 1200 UTC 24 August 2019 to 1800 UTC 25 August 2019
Forecast type: FROM: standard forecast or significant change
Winds: from the E (100 degrees) at 9 MPH (8 knots; 4.1 m/s)
Visibility: 5 miles (8 km)
Ceiling: at least 12,000 feet AGL
Clouds: few clouds at 4000 feet AGL
Weather: no significant weather forecast for this period
Text: TEMPO 2412/2416 06018KT
Forecast period: 1200 to 1600 UTC 24 August 2019
Forecast type: TEMPORARY: The following changes expected for less than half the time period
Winds: from the ENE (60 degrees) at 21 MPH (18 knots; 9.3 m/s)
Visibility: missing
Ceiling: unknown
Clouds: missing
Weather: no significant weather forecast for this period
Text: TEMPO 2509/2514 08016KT
Forecast period: 0900 to 1400 UTC 25 August 2019
Forecast type: TEMPORARY: The following changes expected for less than half the time period
Winds: from the E (80 degrees) at 18 MPH (16 knots; 8.2 m/s)
Visibility: missing
Ceiling: unknown
Clouds: missing
Weather: no significant weather forecast for this period